Time;durP1;ratioP1;P1;durP2;ratioP2;P2;SDS_P1;SDS_P2;PMS_P1;PMS_P2;Temp;Humidity;BMP_temperature;BMP_pressure;BME280_temperature;BME280_humidity;BME280_pressure;Samples;Min_cycle;Max_cycle;Signal;HPM_P1;HPM_P2
2022/06/23 00:00:18;;;;;;;5.60;2.57;;;19.60;99.90;;;;;;5110460;28;20448;-69
2022/06/23 00:02:45;;;;;;;4.80;3.03;;;19.80;99.90;;;;;;5107189;28;20456;-69
2022/06/23 00:05:16;;;;;;;3.50;2.97;;;19.80;99.90;;;;;;5111125;28;20926;-69
2022/06/23 00:07:51;;;;;;;3.70;2.70;;;19.70;99.90;;;;;;5111073;28;20926;-69
2022/06/23 00:10:21;;;;;;;3.20;2.60;;;19.50;99.90;;;;;;5112109;28;20522;-69
2022/06/23 00:12:48;;;;;;;4.13;3.23;;;19.50;99.90;;;;;;5122618;27;20510;-70
2022/06/23 00:15:26;;;;;;;5.13;2.57;;;19.40;99.90;;;;;;5111626;28;20456;-69
2022/06/23 00:18:01;;;;;;;3.10;2.80;;;19.60;99.90;;;;;;5109894;28;20496;-69
2022/06/23 00:20:32;;;;;;;4.33;3.30;;;19.60;99.90;;;;;;5105947;28;20783;-69
2022/06/23 00:23:06;;;;;;;5.50;2.70;;;19.60;99.90;;;;;;5110951;28;20452;-68
2022/06/23 00:25:42;;;;;;;5.13;3.17;;;19.80;99.90;;;;;;5111168;28;20444;-68
2022/06/23 00:28:17;;;;;;;4.77;3.30;;;19.80;99.90;;;;;;5110263;28;20452;-69
2022/06/23 00:30:44;;;;;;;4.30;3.10;;;19.90;99.90;;;;;;5111404;28;20894;-69
2022/06/23 00:33:21;;;;;;;7.13;2.63;;;19.90;99.90;;;;;;5110130;28;20486;-68
2022/06/23 00:35:49;;;;;;;6.20;3.17;;;19.90;99.90;;;;;;5103070;28;20454;-69
2022/06/23 00:38:24;;;;;;;4.40;2.90;;;20.00;99.90;;;;;;5110171;28;20480;-69
2022/06/23 00:40:52;;;;;;;3.23;2.60;;;20.00;99.90;;;;;;5110859;28;20459;-73
2022/06/23 00:43:20;;;;;;;3.33;2.67;;;19.90;99.90;;;;;;5110960;28;20535;-69
2022/06/23 00:45:53;;;;;;;4.73;2.93;;;19.80;99.90;;;;;;5111105;28;20477;-71
2022/06/23 00:48:24;;;;;;;3.63;2.23;;;19.70;99.90;;;;;;5105633;28;20935;-71
2022/06/23 00:50:58;;;;;;;4.73;2.20;;;19.60;99.90;;;;;;5114120;28;20450;-74
2022/06/23 00:53:33;;;;;;;3.03;2.50;;;19.40;99.90;;;;;;5114813;28;20436;-69
2022/06/23 00:56:08;;;;;;;4.20;2.30;;;19.30;99.90;;;;;;5114476;28;20935;-69
2022/06/23 00:58:43;;;;;;;7.00;2.70;;;19.20;99.90;;;;;;5114733;28;20794;-69
2022/06/23 01:01:16;;;;;;;5.80;3.20;;;19.20;99.90;;;;;;5114553;28;20443;-69
2022/06/23 01:03:54;;;;;;;4.57;2.40;;;19.00;99.90;;;;;;5114988;28;20453;-69
2022/06/23 01:06:30;;;;;;;3.53;2.43;;;19.00;99.90;;;;;;5113368;28;20968;-69
2022/06/23 01:09:03;;;;;;;3.70;2.67;;;18.90;99.90;;;;;;5113763;28;20442;-69
2022/06/23 01:11:37;;;;;;;4.03;1.87;;;18.80;99.90;;;;;;5117103;27;20458;-68
2022/06/23 01:14:14;;;;;;;7.63;2.70;;;18.70;99.90;;;;;;5118246;27;20472;-68
2022/06/23 01:16:45;;;;;;;5.57;2.30;;;18.60;99.90;;;;;;5114166;28;20439;-68
2022/06/23 01:19:37;;;;;;;5.10;2.37;;;18.60;99.90;;;;;;5113727;28;20464;-69
2022/06/23 01:22:14;;;;;;;3.93;2.30;;;18.50;99.90;;;;;;5114214;28;20436;-68
2022/06/23 01:24:53;;;;;;;3.73;2.03;;;18.50;99.90;;;;;;5103850;28;20780;-68
2022/06/23 01:27:25;;;;;;;3.50;2.37;;;18.50;99.90;;;;;;5114215;28;20878;-70
2022/06/23 01:29:56;;;;;;;7.50;2.40;;;18.70;99.90;;;;;;5114099;28;20936;-68
2022/06/23 01:32:28;;;;;;;4.30;2.40;;;18.70;99.90;;;;;;5114120;28;20472;-67
2022/06/23 01:35:01;;;;;;;3.10;2.27;;;18.60;99.90;;;;;;5110745;28;20462;-68
2022/06/23 01:37:32;;;;;;;4.17;2.23;;;18.50;99.90;;;;;;5113954;28;20446;-68
2022/06/23 01:40:10;;;;;;;4.00;2.20;;;18.40;99.90;;;;;;5113798;28;20470;-69
2022/06/23 01:42:44;;;;;;;4.13;2.70;;;18.40;99.90;;;;;;5113879;28;20493;-69
2022/06/23 01:45:20;;;;;;;6.73;2.50;;;18.30;99.90;;;;;;5113665;28;20894;-69
2022/06/23 01:47:51;;;;;;;6.40;2.60;;;18.30;99.90;;;;;;5114017;28;20461;-69
2022/06/23 01:50:38;;;;;;;7.77;2.90;;;18.30;99.90;;;;;;5113868;28;20443;-69
2022/06/23 01:53:23;;;;;;;4.73;2.90;;;18.60;99.90;;;;;;5108972;28;20854;-68
2022/06/23 01:56:03;;;;;;;3.93;2.20;;;18.80;99.90;;;;;;5105211;28;21006;-74
2022/06/23 01:58:40;;;;;;;3.63;2.47;;;18.60;99.90;;;;;;5105484;28;20440;-68
2022/06/23 02:01:18;;;;;;;2.27;1.77;;;18.50;99.90;;;;;;5112253;28;20472;-68
2022/06/23 02:03:49;;;;;;;3.60;2.00;;;18.30;99.90;;;;;;5113143;28;20451;-69
2022/06/23 02:06:21;;;;;;;4.83;2.33;;;18.30;99.90;;;;;;5113297;28;20527;-69
2022/06/23 02:08:56;;;;;;;3.10;2.17;;;18.30;99.90;;;;;;5113628;28;20440;-68
2022/06/23 02:11:30;;;;;;;2.70;2.23;;;18.20;99.90;;;;;;5113511;28;20955;-69
2022/06/23 02:14:07;;;;;;;4.53;2.40;;;18.20;99.90;;;;;;5113525;28;20555;-70
2022/06/23 02:16:42;;;;;;;5.13;2.60;;;18.30;99.90;;;;;;5113521;28;20816;-69
2022/06/23 02:19:18;;;;;;;3.40;2.73;;;18.20;99.90;;;;;;5110368;28;20733;-70
2022/06/23 02:21:50;;;;;;;4.87;2.37;;;18.10;99.90;;;;;;5113453;28;20801;-69
2022/06/23 02:24:24;;;;;;;6.27;2.70;;;18.20;99.90;;;;;;5113343;28;20439;-69
2022/06/23 02:27:01;;;;;;;4.83;2.67;;;18.10;99.90;;;;;;5112542;28;20440;-69
2022/06/23 02:29:35;;;;;;;5.70;2.37;;;18.00;99.90;;;;;;5104077;28;20444;-69
2022/06/23 02:32:08;;;;;;;4.20;2.47;;;18.10;99.90;;;;;;5112048;28;20812;-68
2022/06/23 02:34:42;;;;;;;3.27;2.37;;;18.00;99.90;;;;;;5113083;28;20460;-68
2022/06/23 02:37:49;;;;;;;3.60;2.67;;;18.00;99.90;;;;;;5111688;28;20814;-68
2022/06/23 02:40:21;;;;;;;2.73;2.40;;;17.90;99.90;;;;;;5104088;28;20835;-68
2022/06/23 02:42:52;;;;;;;5.17;3.67;;;17.90;99.90;;;;;;5113034;28;20447;-68
2022/06/23 02:45:42;;;;;;;4.43;2.40;;;17.80;99.90;;;;;;5112442;28;20926;-68
2022/06/23 02:48:26;;;;;;;4.73;2.87;;;17.80;99.90;;;;;;5112019;28;20513;-68
2022/06/23 02:51:09;;;;;;;4.13;2.67;;;17.90;99.90;;;;;;5112242;28;20444;-69
2022/06/23 02:54:02;;;;;;;3.03;2.73;;;17.90;99.90;;;;;;5112332;28;20807;-68
2022/06/23 02:56:45;;;;;;;2.60;2.20;;;17.80;99.90;;;;;;5109090;28;20464;-69
2022/06/23 02:59:18;;;;;;;3.40;2.27;;;17.70;99.90;;;;;;5112268;28;20962;-68
2022/06/23 03:01:48;;;;;;;5.50;2.47;;;17.60;99.90;;;;;;5112806;28;20481;-69
2022/06/23 03:04:23;;;;;;;4.20;2.40;;;17.60;99.90;;;;;;5112921;28;20440;-68
2022/06/23 03:07:04;;;;;;;5.60;3.20;;;17.50;99.90;;;;;;5111483;28;20443;-72
2022/06/23 03:09:36;;;;;;;2.53;2.17;;;17.40;99.90;;;;;;5112320;28;20439;-69
2022/06/23 03:12:10;;;;;;;4.13;3.03;;;17.50;99.90;;;;;;5111171;28;20447;-68
2022/06/23 03:14:43;;;;;;;3.80;2.80;;;17.50;99.90;;;;;;5112162;28;20798;-69
2022/06/23 03:17:17;;;;;;;5.13;2.90;;;17.60;99.90;;;;;;5111396;28;20444;-68
2022/06/23 03:19:54;;;;;;;3.90;2.70;;;17.60;99.90;;;;;;5112199;28;20503;-69
2022/06/23 03:22:27;;;;;;;4.13;2.53;;;17.70;99.90;;;;;;5109735;28;20526;-68
2022/06/23 03:25:02;;;;;;;4.13;2.30;;;17.80;99.90;;;;;;5112224;28;20782;-68
2022/06/23 03:27:32;;;;;;;4.90;2.33;;;;;;;;;;5112115;28;20507;-68
2022/06/23 03:30:01;;;;;;;3.80;2.90;;;;;;;;;;5111699;28;20543;-69
2022/06/23 03:32:30;;;;;;;5.13;2.90;;;;;;;;;;5115941;27;20487;-68
2022/06/23 03:35:03;;;;;;;3.33;2.23;;;;;;;;;;5105733;28;20447;-69
2022/06/23 03:37:35;;;;;;;2.30;2.03;;;;;;;;;;5110650;28;20443;-68
2022/06/23 03:42:53;;;;;;;3.30;2.00;;;;;;;;;;5112188;28;20933;-67
2022/06/23 03:45:21;;;;;;;5.00;2.50;;;;;;;;;;5111848;28;20527;-69
2022/06/23 03:47:51;;;;;;;3.13;2.57;;;;;;;;;;5111665;28;20446;-67
2022/06/23 03:50:23;;;;;;;6.10;2.63;;;;;;;;;;5111695;28;20954;-67
2022/06/23 03:52:53;;;;;;;6.70;3.00;;;;;;;;;;5111377;28;20457;-68
2022/06/23 03:55:23;;;;;;;3.40;2.40;;;;;;;;;;5111612;28;20443;-68
2022/06/23 03:57:53;;;;;;;3.10;2.50;;;;;;;;;;5111175;28;20455;-72
2022/06/23 04:00:24;;;;;;;4.10;2.57;;;;;;;;;;5111467;28;20467;-71
2022/06/23 04:03:00;;;;;;;3.37;3.07;;;;;;;;;;5111217;28;20466;-69
2022/06/23 04:05:30;;;;;;;5.33;2.47;;;;;;;;;;5111364;28;20432;-71
2022/06/23 04:07:58;;;;;;;4.03;2.43;;;;;;;;;;5110697;28;20451;-71
2022/06/23 04:10:30;;;;;;;3.67;2.30;;;;;;;;;;5111897;28;20807;-71
2022/06/23 04:12:59;;;;;;;3.90;2.43;;;;;;;;;;5122012;27;20454;-69
2022/06/23 04:15:30;;;;;;;4.10;3.00;;;;;;;;;;5108998;28;20489;-69
2022/06/23 04:18:00;;;;;;;4.83;2.60;;;;;;;;;;5106797;28;20444;-69
2022/06/23 04:20:32;;;;;;;8.33;2.87;;;;;;;;;;5111169;27;20570;-69
2022/06/23 04:23:01;;;;;;;4.80;2.80;;;;;;;;;;5110906;28;20987;-69
2022/06/23 04:25:41;;;;;;;7.00;2.80;;;;;;;;;;5110430;28;20440;-70
2022/06/23 04:28:16;;;;;;;8.73;3.50;;;;;;;;;;5110510;28;20445;-69
2022/06/23 04:30:43;;;;;;;2.90;2.60;;;;;;;;;;5110601;28;20509;-67
2022/06/23 04:33:15;;;;;;;3.80;2.60;;;;;;;;;;5109591;28;20989;-68
2022/06/23 04:35:48;;;;;;;4.70;2.40;;;;;;;;;;5130450;27;20511;-66
2022/06/23 04:38:18;;;;;;;6.73;2.50;;;;;;;;;;5130551;28;20925;-68
2022/06/23 04:40:47;;;;;;;2.97;2.50;;;;;;;;;;5132207;28;20494;-68
2022/06/23 04:43:16;;;;;;;6.43;2.93;;;;;;;;;;5131297;28;20443;-67
2022/06/23 04:45:49;;;;;;;3.27;2.50;;;;;;;;;;5131734;28;20447;-67
2022/06/23 04:48:19;;;;;;;3.00;2.70;;;;;;;;;;5131913;28;20431;-67
2022/06/23 04:50:52;;;;;;;7.43;2.83;;;;;;;;;;5131898;28;20443;-67
2022/06/23 04:53:26;;;;;;;7.90;2.50;;;;;;;;;;5131583;28;20454;-67
2022/06/23 04:56:14;;;;;;;6.00;2.37;;;;;;;;;;5131318;28;20829;-67
2022/06/23 04:58:46;;;;;;;2.87;2.60;;;;;;;;;;5125348;28;20455;-68
2022/06/23 05:01:15;;;;;;;8.73;3.30;;;;;;;;;;5130992;28;20477;-68
2022/06/23 05:03:47;;;;;;;8.00;3.00;;;;;;;;;;5131262;28;20458;-67
2022/06/23 05:06:22;;;;;;;4.07;2.80;;;;;;;;;;5131401;28;20871;-67
2022/06/23 05:08:50;;;;;;;5.60;2.87;;;;;;;;;;5132009;28;20447;-68
2022/06/23 05:11:22;;;;;;;4.50;3.60;;;;;;;;;;5134584;27;20466;-67
2022/06/23 05:13:51;;;;;;;3.50;2.87;;;;;;;;;;5137913;27;20442;-69
2022/06/23 05:16:20;;;;;;;5.80;2.70;;;;;;;;;;5131744;28;20457;-68
2022/06/23 05:18:48;;;;;;;5.47;2.80;;;;;;;;;;5131506;28;20443;-68
2022/06/23 05:21:19;;;;;;;4.20;3.00;;;;;;;;;;5131621;28;20844;-67
2022/06/23 05:23:48;;;;;;;5.77;2.60;;;;;;;;;;5131187;28;20447;-67
2022/06/23 05:26:16;;;;;;;5.40;2.97;;;;;;;;;;5131384;28;20448;-67
2022/06/23 05:28:45;;;;;;;8.77;2.70;;;;;;;;;;5131404;28;20454;-67
2022/06/23 05:31:17;;;;;;;5.47;3.57;;;;;;;;;;5130811;28;20428;-67
2022/06/23 05:33:45;;;;;;;7.70;3.10;;;;;;;;;;5130787;28;20482;-68
2022/06/23 05:36:15;;;;;;;6.37;3.27;;;;;;;;;;5131740;27;20450;-67
2022/06/23 05:38:45;;;;;;;6.63;2.77;;;;;;;;;;5135531;27;20443;-67
2022/06/23 05:41:15;;;;;;;4.60;3.10;;;;;;;;;;5134673;27;20482;-67
2022/06/23 05:43:43;;;;;;;6.53;3.50;;;;;;;;;;5134325;27;20441;-67
2022/06/23 05:46:16;;;;;;;3.77;2.60;;;;;;;;;;5134243;27;21248;-67
2022/06/23 05:48:45;;;;;;;4.97;3.13;;;;;;;;;;5134621;27;20926;-67
2022/06/23 05:51:16;;;;;;;3.40;2.10;;;;;;;;;;5134477;27;20454;-67
2022/06/23 05:53:49;;;;;;;4.93;2.70;;;;;;;;;;5134572;27;20449;-68
2022/06/23 05:56:19;;;;;;;6.30;2.80;;;;;;;;;;5134870;27;20474;-67
2022/06/23 05:58:48;;;;;;;4.53;2.60;;;;;;;;;;5135439;27;20470;-67
2022/06/23 06:01:19;;;;;;;4.23;2.83;;;;;;;;;;5134742;27;20478;-67
2022/06/23 06:03:49;;;;;;;8.90;2.60;;;;;;;;;;5134031;27;20462;-68
2022/06/23 06:06:16;;;;;;;5.70;2.70;;;;;;;;;;5134844;27;20431;-68
2022/06/23 06:11:32;;;;;;;2.87;1.83;;;;;;;;;;5126961;27;20424;-68
2022/06/23 06:13:59;;;;;;;4.13;2.20;;;;;;;;;;5138890;27;20450;-67
2022/06/23 06:16:27;;;;;;;3.20;2.33;;;;;;;;;;5134244;27;20513;-67
2022/06/23 06:18:54;;;;;;;4.67;2.10;;;;;;;;;;5133701;27;20450;-68
2022/06/23 06:21:22;;;;;;;7.50;2.80;;;;;;;;;;5134211;27;20485;-68
2022/06/23 06:23:53;;;;;;;6.33;2.67;;;;;;;;;;5134040;27;20451;-72
2022/06/23 06:26:22;;;;;;;8.73;2.47;;;;;;;;;;5134200;27;20526;-69
2022/06/23 06:28:50;;;;;;;2.90;1.87;;;;;;;;;;5134427;27;20447;-68
2022/06/23 06:31:22;;;;;;;3.90;2.43;;;;;;;;;;5134372;27;20450;-67
2022/06/23 06:33:53;;;;;;;6.60;2.83;;;;;;;;;;5133347;27;20482;-67
2022/06/23 06:36:28;;;;;;;3.73;2.07;;;;;;;;;;5134182;27;20439;-69
2022/06/23 06:38:59;;;;;;;3.40;2.00;;;;;;;;;;5133571;27;20515;-67
2022/06/23 06:41:27;;;;;;;8.00;2.20;;;;;;;;;;5133720;27;20554;-68
2022/06/23 06:43:54;;;;;;;3.60;2.10;;;;;;;;;;5132822;27;20879;-68
2022/06/23 06:46:21;;;;;;;4.67;2.60;;;;;;;;;;5133613;27;20975;-68
2022/06/23 06:48:48;;;;;;;4.83;2.43;;;;;;;;;;5134547;27;20949;-67
2022/06/23 06:51:19;;;;;;;5.30;2.47;;;;;;;;;;5133813;27;20451;-68
2022/06/23 06:53:48;;;;;;;7.57;2.50;;;;;;;;;;5133298;27;20530;-67
2022/06/23 06:56:18;;;;;;;4.87;2.93;;;;;;;;;;5133895;27;20443;-67
2022/06/23 06:58:47;;;;;;;2.83;1.97;;;;;;;;;;5134032;27;20451;-67
2022/06/23 07:01:16;;;;;;;3.00;2.10;;;;;;;;;;5133195;27;20478;-68
2022/06/23 07:03:45;;;;;;;3.47;1.90;;;;;;;;;;5132828;27;20459;-67
2022/06/23 07:06:16;;;;;;;4.00;1.90;;;;;;;;;;5132323;27;20447;-68
2022/06/23 07:08:45;;;;;;;5.00;2.43;;;;;;;;;;5133348;27;20530;-69
2022/06/23 07:11:15;;;;;;;4.80;2.20;;;;;;;;;;5135103;27;20450;-68
2022/06/23 07:13:47;;;;;;;2.03;1.83;;;;;;;;;;5140810;27;20447;-68
2022/06/23 07:16:17;;;;;;;2.77;1.97;;;;;;;;;;5119340;27;20447;-68
2022/06/23 07:18:47;;;;;;;6.93;2.20;;;;;;;;;;5133578;27;20439;-68
2022/06/23 07:21:19;;;;;;;5.50;2.30;;;;;;;;;;5133030;27;20478;-67
2022/06/23 07:23:49;;;;;;;5.23;2.57;;;;;;;;;;5132744;27;20795;-68
2022/06/23 07:26:23;;;;;;;2.40;2.13;;;;;;;;;;5132985;27;20451;-68
2022/06/23 07:28:57;;;;;;;2.73;2.00;;;;;;;;;;5132533;27;20451;-69
2022/06/23 07:31:29;;;;;;;3.77;1.73;;;;;;;;;;5132856;27;20952;-68
2022/06/23 07:33:59;;;;;;;3.60;1.57;;;;;;;;;;5131941;27;20479;-67
2022/06/23 07:36:28;;;;;;;9.10;2.13;;;;;;;;;;5132893;27;20535;-68
2022/06/23 07:39:00;;;;;;;3.13;1.70;;;;;;;;;;5119047;27;20443;-67
2022/06/23 07:41:30;;;;;;;6.13;2.10;;;;;;;;;;5132912;27;20774;-67
2022/06/23 07:44:01;;;;;;;2.60;1.67;;;;;;;;;;5132065;27;20451;-68
2022/06/23 07:46:29;;;;;;;6.10;2.10;;;;;;;;;;5132436;27;20436;-68
2022/06/23 07:48:56;;;;;;;6.57;1.90;;;;;;;;;;5132100;27;20797;-67
2022/06/23 07:51:24;;;;;;;3.17;1.40;;;;;;;;;;5132247;27;20537;-66
2022/06/23 07:53:52;;;;;;;4.33;1.67;;;;;;;;;;5131626;27;20837;-67
2022/06/23 07:56:21;;;;;;;5.13;2.10;;;;;;;;;;5132328;27;20451;-68
2022/06/23 07:58:50;;;;;;;3.83;2.20;;;;;;;;;;5131844;27;20822;-67
2022/06/23 08:01:19;;;;;;;2.83;1.67;;;;;;;;;;5132438;27;20489;-67
2022/06/23 08:03:50;;;;;;;3.23;2.00;;;;;;;;;;5132524;27;20461;-68
2022/06/23 08:06:21;;;;;;;6.73;2.00;;;;;;;;;;5132314;27;20792;-68
2022/06/23 08:08:49;;;;;;;3.57;2.00;;;;;;;;;;5132343;27;20930;-69
2022/06/23 08:14:05;;;;;;;3.43;1.90;;;;;;;;;;5136641;27;20782;-68
2022/06/23 08:16:51;;;;;;;5.10;2.20;;;;;;;;;;5132246;27;20453;-68
2022/06/23 08:19:24;;;;;;;4.93;1.80;;;;;;;;;;5132268;27;20443;-68
2022/06/23 08:21:53;;;;;;;3.37;2.17;;;;;;;;;;5131299;27;20819;-67
2022/06/23 08:24:23;;;;;;;3.60;1.53;;;;;;;;;;5132123;27;20446;-69
2022/06/23 08:26:53;;;;;;;3.00;1.70;;;;;;;;;;5131615;27;20447;-73
2022/06/23 08:29:21;;;;;;;5.70;1.73;;;;;;;;;;5132125;27;20544;-70
2022/06/23 08:31:50;;;;;;;3.00;1.50;;;;;;;;;;5131436;27;20451;-68
2022/06/23 08:34:17;;;;;;;6.77;1.53;;;;;;;;;;5132128;27;20561;-66
2022/06/23 08:36:46;;;;;;;2.40;1.53;;;;;;;;;;5131709;27;20623;-66
2022/06/23 08:39:15;;;;;;;2.80;1.60;;;;;;;;;;5131490;27;20468;-66
2022/06/23 08:41:45;;;;;;;3.07;1.73;;;;;;;;;;5131572;28;20482;-69
2022/06/23 08:44:15;;;;;;;3.63;1.80;;;;;;;;;;5131458;28;20439;-68
2022/06/23 08:46:46;;;;;;;3.63;1.77;;;;;;;;;;5131623;28;20929;-67
2022/06/23 08:49:23;;;;;;;2.57;1.87;;;;;;;;;;5131382;28;20457;-67
2022/06/23 08:51:53;;;;;;;4.57;2.73;;;;;;;;;;5130907;28;20458;-71
2022/06/23 08:54:21;;;;;;;1.90;1.53;;;;;;;;;;5131959;28;20450;-70
2022/06/23 08:56:53;;;;;;;3.03;1.70;;;;;;;;;;5132190;28;20442;-68
2022/06/23 08:59:24;;;;;;;2.60;1.50;;;;;;;;;;5131841;28;20454;-68
2022/06/23 09:01:55;;;;;;;4.10;2.00;;;;;;;;;;5130756;28;20471;-68
2022/06/23 09:04:27;;;;;;;3.00;2.03;;;;;;;;;;5131292;28;20499;-68
2022/06/23 09:06:58;;;;;;;3.13;1.57;;;;;;;;;;5131359;28;20445;-68
2022/06/23 09:09:29;;;;;;;2.67;2.00;;;;;;;;;;5131895;28;20438;-68
2022/06/23 09:12:01;;;;;;;5.07;1.70;;;;;;;;;;5143590;27;20521;-68
2022/06/23 09:14:49;;;;;;;3.27;1.80;;;;;;;;;;5137091;27;20443;-68
2022/06/23 09:17:23;;;;;;;6.43;2.13;;;;;;;;;;5129611;27;20508;-68
2022/06/23 09:19:57;;;;;;;7.33;1.97;;;;;;;;;;5135091;27;20438;-72
2022/06/23 09:22:31;;;;;;;2.67;2.03;;;;;;;;;;5135170;27;20481;-69
2022/06/23 09:25:01;;;;;;;3.20;1.40;;;;;;;;;;5135206;27;20778;-68
2022/06/23 09:27:36;;;;;;;2.60;1.60;;;;;;;;;;5135516;27;20470;-68
2022/06/23 09:30:06;;;;;;;3.80;1.97;;;;;;;;;;5134814;27;20929;-67
2022/06/23 09:32:45;;;;;;;2.37;1.73;;;;;;;;;;5121091;27;20481;-67
2022/06/23 09:35:27;;;;;;;3.30;1.60;;;;;;;;;;5134686;27;20517;-67
2022/06/23 09:38:05;;;;;;;3.87;1.87;;;;;;;;;;5134995;27;20447;-68
2022/06/23 09:40:39;;;;;;;5.03;2.20;;;;;;;;;;5135090;27;20443;-68
2022/06/23 09:43:25;;;;;;;2.37;1.60;;;;;;;;;;5134484;27;20442;-68
2022/06/23 09:46:00;;;;;;;2.97;1.83;;;;;;;;;;5123814;27;20766;-68
2022/06/23 09:48:39;;;;;;;4.00;2.37;;;;;;;;;;5135263;27;20521;-69
2022/06/23 09:51:16;;;;;;;2.23;1.70;;;;;;;;;;5134202;27;20438;-68
2022/06/23 09:54:00;;;;;;;4.10;1.80;;;;;;;;;;5134583;27;20430;-68
2022/06/23 09:56:44;;;;;;;5.43;2.00;;;;;;;;;;5134758;27;20881;-68
2022/06/23 09:59:19;;;;;;;2.30;2.07;;;;;;;;;;5134225;27;20936;-68
2022/06/23 10:01:51;;;;;;;3.23;1.80;;;;;;;;;;5134236;27;20470;-68
2022/06/23 10:04:35;;;;;;;3.33;1.73;;;;;;;;;;5134999;27;20450;-69
2022/06/23 10:07:14;;;;;;;2.90;1.60;;;;;;;;;;5134363;27;20447;-67
2022/06/23 10:09:47;;;;;;;3.37;1.80;;;;;;;;;;5134657;27;20499;-68
2022/06/23 10:12:23;;;;;;;2.53;1.70;;;;;;;;;;5144426;27;20454;-67
2022/06/23 10:14:56;;;;;;;4.73;1.70;;;;;;;;;;5134130;27;20943;-73
2022/06/23 10:17:31;;;;;;;5.53;2.63;;;;;;;;;;5134358;27;20442;-67
2022/06/23 10:20:13;;;;;;;4.43;2.43;;;;;;;;;;5134019;27;20796;-68
2022/06/23 10:22:55;;;;;;;5.33;2.33;;;;;;;;;;5133113;27;20470;-67
2022/06/23 10:25:33;;;;;;;7.03;1.83;;;;;;;;;;5134025;27;20443;-67
2022/06/23 10:28:15;;;;;;;4.23;1.87;;;;;;;;;;5133921;27;20473;-66
2022/06/23 10:30:48;;;;;;;2.73;2.53;;;;;;;;;;5131251;27;20536;-67
2022/06/23 10:33:28;;;;;;;2.93;1.80;;;;;;;;;;5133466;27;20478;-67
2022/06/23 10:36:04;;;;;;;4.00;1.80;;;;;;;;;;5133757;27;20460;-67
2022/06/23 10:38:39;;;;;;;2.80;2.20;;;;;;;;;;5134245;27;20449;-68
2022/06/23 10:41:16;;;;;;;3.80;2.03;;;;;;;;;;5133629;27;20441;-69
2022/06/23 10:43:58;;;;;;;2.27;1.90;;;;;;;;;;5133870;27;20442;-68
2022/06/23 10:46:26;;;;;;;2.83;1.70;;;;;;;;;;5133961;27;20449;-67
2022/06/23 10:49:03;;;;;;;2.57;1.90;;;;;;;;;;5133379;27;20450;-67
2022/06/23 10:51:39;;;;;;;2.63;1.67;;;;;;;;;;5133096;27;20533;-68
2022/06/23 10:54:23;;;;;;;3.40;1.67;;;;;;;;;;5133229;27;20773;-69
2022/06/23 10:56:57;;;;;;;4.37;1.90;;;;;;;;;;5133113;27;20924;-71
2022/06/23 10:59:33;;;;;;;1.57;1.47;;;;;;;;;;5133870;27;20852;-68
2022/06/23 11:02:17;;;;;;;2.70;1.63;;;;;;;;;;5132839;27;20504;-68
2022/06/23 11:05:02;;;;;;;2.30;1.17;;;;;;;;;;5133316;27;20905;-68
2022/06/23 11:07:44;;;;;;;3.13;1.43;;;;;;;;;;5133536;27;20462;-67
2022/06/23 11:10:24;;;;;;;1.83;1.40;;;;;;;;;;5133038;27;20449;-68
2022/06/23 11:12:59;;;;;;;2.43;0.97;;;;;;;;;;5143753;27;20461;-68
2022/06/23 11:15:30;;;;;;;2.23;1.00;;;;;;;;;;5133567;27;20438;-67
2022/06/23 11:18:08;;;;;;;2.13;1.23;;;;;;;;;;5133093;27;20450;-68
2022/06/23 11:20:40;;;;;;;1.77;1.30;;;;;;;;;;5133151;27;20453;-67
2022/06/23 11:23:11;;;;;;;5.17;1.37;;;;;;;;;;5132070;27;20973;-67
2022/06/23 11:25:46;;;;;;;1.80;1.30;;;;;;;;;;5133305;27;20461;-69
2022/06/23 11:28:19;;;;;;;3.43;1.40;;;;;;;;;;5132910;27;20438;-68
2022/06/23 11:30:51;;;;;;;2.50;1.23;;;;;;;;;;5133544;27;20769;-68
2022/06/23 11:33:30;;;;;;;2.20;1.20;;;;;;;;;;5132149;27;20474;-68
2022/06/23 11:36:11;;;;;;;7.40;1.87;;;;;;;;;;5125160;27;20948;-68
2022/06/23 11:38:51;;;;;;;3.13;1.70;;;;;;;;;;5133304;27;20461;-68
2022/06/23 11:41:26;;;;;;;2.10;1.13;;;;;;;;;;5133125;27;20449;-68
2022/06/23 11:44:03;;;;;;;2.07;1.17;;;;;;;;;;5133001;27;20449;-67
2022/06/23 11:46:34;;;;;;;1.47;1.13;;;;;;;;;;5132940;27;20442;-68
2022/06/23 11:49:11;;;;;;;1.43;1.20;;;;;;;;;;5132363;27;20442;-68
2022/06/23 11:51:47;;;;;;;2.27;1.70;;;;;;;;;;5132145;27;20447;-68
2022/06/23 11:54:20;;;;;;;2.23;1.50;;;;;;;;;;5132278;27;20442;-68
2022/06/23 11:56:57;;;;;;;2.30;1.33;;;;;;;;;;5132819;27;20431;-68
2022/06/23 11:59:33;;;;;;;1.50;1.40;;;;;;;;;;5132644;27;20791;-68
2022/06/23 12:02:00;;;;;;;1.77;1.10;;;;;;;;;;5131485;27;20971;-68
2022/06/23 12:04:33;;;;;;;1.70;1.50;;;;;;;;;;5130226;27;20530;-69
2022/06/23 12:07:08;;;;;;;1.87;1.20;;;;;;;;;;5131663;27;20446;-66
2022/06/23 12:09:41;;;;;;;2.57;1.10;;;;;;;;;;5132181;27;20442;-67
2022/06/23 12:12:09;;;;;;;3.50;1.40;;;;;;;;;;5141683;27;20460;-67
2022/06/23 12:14:38;;;;;;;4.60;1.77;;;;;;;;;;5132105;27;20785;-67
2022/06/23 12:17:10;;;;;;;1.87;1.30;;;;;;;;;;5131583;27;20953;-67
2022/06/23 12:19:40;;;;;;;2.70;1.30;;;;;;;;;;5132192;27;20435;-67
2022/06/23 12:22:12;;;;;;;2.53;1.80;;;;;;;;;;5131167;27;20500;-66
2022/06/23 12:24:42;;;;;;;2.17;1.40;;;;;;;;;;5132439;27;20474;-67
2022/06/23 12:27:14;;;;;;;2.57;1.40;;;;;;;;;;5113272;27;20446;-67
2022/06/23 12:29:46;;;;;;;2.40;1.60;;;;;;;;;;5132244;27;20525;-67
2022/06/23 12:32:15;;;;;;;1.97;1.40;;;;;;;;;;5130713;27;20691;-67
2022/06/23 12:34:47;;;;;;;4.63;2.00;;;;;;;;;;5132209;27;20504;-68
2022/06/23 12:37:17;;;;;;;4.30;1.90;;;;;;;;;;5131416;27;20556;-68
2022/06/23 12:39:48;;;;;;;1.67;1.33;;;;;;;;;;5132166;27;20437;-68
2022/06/23 12:42:20;;;;;;;2.00;1.70;;;;;;;;;;5131698;28;20237;-68
2022/06/23 12:44:55;;;;;;;3.43;1.60;;;;;;;;;;5132037;27;20192;-68
2022/06/23 12:47:29;;;;;;;5.93;1.80;;;;;;;;;;5131719;28;20665;-66
2022/06/23 12:50:04;;;;;;;2.00;1.40;;;;;;;;;;5131450;28;20544;-68
2022/06/23 12:52:39;;;;;;;2.13;1.57;;;;;;;;;;5131641;28;20567;-67
2022/06/23 12:55:13;;;;;;;4.50;1.50;;;;;;;;;;5131348;28;20283;-67
2022/06/23 12:57:49;;;;;;;2.77;1.70;;;;;;;;;;5132053;28;20241;-67
2022/06/23 13:00:18;;;;;;;2.40;1.10;;;;;;;;;;5132058;28;20192;-67
2022/06/23 13:02:49;;;;;;;1.60;1.50;;;;;;;;;;5131168;28;20221;-67
2022/06/23 13:05:19;;;;;;;4.30;1.33;;;;;;;;;;5131868;28;20203;-68
2022/06/23 13:07:49;;;;;;;4.13;1.50;;;;;;;;;;5131871;28;20200;-67
2022/06/23 13:10:20;;;;;;;2.60;1.63;;;;;;;;;;5131654;28;20196;-67
2022/06/23 13:12:52;;;;;;;2.07;1.40;;;;;;;;;;5141727;27;20207;-67
2022/06/23 13:15:24;;;;;;;3.20;1.53;;;;;;;;;;5131581;28;20199;-67
2022/06/23 13:17:54;;;;;;;2.07;1.70;;;;;;;;;;5117415;28;20219;-68
2022/06/23 13:20:24;;;;;;;1.73;1.43;;;;;;;;;;5131496;28;20193;-68
2022/06/23 13:22:53;;;;;;;2.73;1.60;;;;;;;;;;5130255;28;20226;-68
2022/06/23 13:25:23;;;;;;;2.38;1.42;;;;;;;;;;5131291;28;20236;-69
2022/06/23 13:27:54;;;;;;;2.50;1.33;;;;;;;;;;5131694;28;20197;-72
2022/06/23 13:30:23;;;;;;;6.40;1.53;;;;;;;;;;5131169;28;20201;-68
2022/06/23 13:32:55;;;;;;;1.80;1.63;;;;;;;;;;5129857;28;20233;-72
2022/06/23 13:35:26;;;;;;;2.10;1.20;;;;;;;;;;5131399;28;20197;-68
2022/06/23 13:37:56;;;;;;;3.05;1.52;;;;;;;;;;5131180;28;20200;-67
2022/06/23 13:40:29;;;;;;;4.20;1.67;;;;;;;;;;5131504;28;20592;-68
2022/06/23 13:43:01;;;;;;;2.85;1.98;;;;;;;;;;5130303;28;20220;-67
2022/06/23 13:45:35;;;;;;;2.63;2.00;;;;;;;;;;5131625;28;20196;-68
2022/06/23 13:48:07;;;;;;;1.80;1.58;;;;;;;;;;5130485;28;20197;-68
2022/06/23 13:50:37;;;;;;;2.35;1.20;;;;;;;;;;5131390;28;20236;-67
2022/06/23 13:53:07;;;;;;;3.47;1.50;;;;;;;;;;5130513;28;20205;-67
2022/06/23 13:55:38;;;;;;;1.92;1.45;;;;;;;;;;5131466;28;20201;-67
2022/06/23 13:58:09;;;;;;;2.72;1.60;;;;;;;;;;5132983;27;20201;-68
2022/06/23 14:00:39;;;;;;;2.20;1.60;;;;;;;;;;5134791;27;20635;-67
2022/06/23 14:03:11;;;;;;;4.93;1.65;;;;;;;;;;5133748;27;20277;-67
2022/06/23 14:05:39;;;;;;;4.28;1.40;;;;;;;;;;5134304;27;20712;-67
2022/06/23 14:08:10;;;;;;;4.38;1.90;;;;;;;;;;5134222;27;20201;-68
2022/06/23 14:10:40;;;;;;;4.57;1.63;;;;;;;;;;5134966;27;20632;-68
2022/06/23 14:13:13;;;;;;;2.63;1.60;;;;;;;;;;5145454;27;20204;-68
2022/06/23 14:15:44;;;;;;;6.53;1.70;;;;;;;;;;5134743;27;20196;-68
2022/06/23 14:18:15;;;;;;;6.10;1.65;;;;;;;;;;5134186;27;20203;-68
2022/06/23 14:20:43;;;;;;;1.25;1.15;;;;;;;;;;5134406;27;20273;-68
2022/06/23 14:23:15;;;;;;;6.15;2.28;;;;;;;;;;5133270;27;20220;-67
2022/06/23 14:25:46;;;;;;;2.90;1.90;;;;;;;;;;5134059;27;20201;-67
2022/06/23 14:28:22;;;;;;;5.13;1.77;;;;;;;;;;5134066;27;20197;-67
2022/06/23 14:30:52;;;;;;;2.15;1.85;;;;;;;;;;5134604;27;20204;-67
2022/06/23 14:33:22;;;;;;;3.60;1.80;;;;;;;;;;5133915;27;20228;-66
2022/06/23 14:35:52;;;;;;;1.75;1.48;;;;;;;;;;5134267;27;20200;-68
2022/06/23 14:38:22;;;;;;;3.10;1.63;;;;;;;;;;5134373;27;20197;-67
2022/06/23 14:40:56;;;;;;;3.10;1.60;;;;;;;;;;5134373;27;20197;-67
2022/06/23 14:43:30;;;;;;;4.00;1.65;;;;;;;;;;5134113;27;20563;-67
2022/06/23 14:46:01;;;;;;;2.42;1.60;;;;;;;;;;5133628;27;20586;-67
2022/06/23 14:48:55;;;;;;;4.55;2.67;;;;;;;;;;5133708;27;20193;-67
2022/06/23 14:51:29;;;;;;;3.88;1.60;;;;;;;;;;5085218;27;20196;-67
2022/06/23 14:53:59;;;;;;;2.35;1.70;;;;;;;;;;5133542;27;20201;-67